createdAt,value
2019-05-05T00:01:45.040Z,70.20
2019-05-05T00:04:30.755Z,70.40
2019-05-05T00:06:59.748Z,70.40
2019-05-05T00:09:28.972Z,70.80
2019-05-05T00:12:11.761Z,70.90
2019-05-05T00:14:54.780Z,70.80
2019-05-05T00:17:25.371Z,71.00
2019-05-05T00:19:54.963Z,70.50
2019-05-05T00:22:24.609Z,70.80
2019-05-05T00:24:54.594Z,70.20
2019-05-05T00:27:25.388Z,70.40
2019-05-05T00:29:54.830Z,70.70
2019-05-05T00:32:24.542Z,70.40
2019-05-05T00:34:55.102Z,70.50
2019-05-05T00:37:25.666Z,70.10
2019-05-05T00:39:54.873Z,70.10
2019-05-05T00:42:24.772Z,70.00
2019-05-05T00:44:54.940Z,70.40
2019-05-05T00:47:45.083Z,70.30
2019-05-05T00:50:16.093Z,70.00
2019-05-05T00:52:45.039Z,71.00
2019-05-05T00:55:15.585Z,71.70
2019-05-05T00:57:45.354Z,72.30
2019-05-05T01:00:19.514Z,72.30
2019-05-05T01:02:54.179Z,72.40
2019-05-05T01:05:25.365Z,72.60
2019-05-05T01:07:54.784Z,72.60
2019-05-05T01:10:24.838Z,72.90
2019-05-05T01:12:54.549Z,72.30
2019-05-05T01:15:25.471Z,72.00
2019-05-05T01:17:55.290Z,71.20
2019-05-05T01:20:25.057Z,70.60
2019-05-05T01:22:55.330Z,70.90
2019-05-05T01:25:25.415Z,70.40
2019-05-05T01:27:54.693Z,70.60
2019-05-05T01:30:30.079Z,71.10
2019-05-05T01:33:06.511Z,71.80
2019-05-05T01:35:35.595Z,72.80
2019-05-05T01:38:09.013Z,72.30
2019-05-05T01:40:39.981Z,71.00
2019-05-05T01:43:09.003Z,71.80
2019-05-05T01:45:38.110Z,72.20
2019-05-05T01:48:07.073Z,72.50
2019-05-05T01:50:36.070Z,72.60
2019-05-05T01:53:05.170Z,72.40
2019-05-05T01:55:34.822Z,72.90
2019-05-05T01:58:04.776Z,72.70
2019-05-05T02:00:34.903Z,73.20
2019-05-05T02:03:04.644Z,73.70
2019-05-05T02:05:34.894Z,74.00
2019-05-05T02:08:05.062Z,73.00
2019-05-05T02:10:34.859Z,72.60
2019-05-05T02:13:04.738Z,72.70
2019-05-05T02:15:34.469Z,72.20
2019-05-05T02:18:04.485Z,71.50
2019-05-05T02:20:39.053Z,71.50
2019-05-05T02:23:08.360Z,71.60
2019-05-05T02:25:37.704Z,72.10
2019-05-05T02:28:06.807Z,71.90
2019-05-05T02:30:49.780Z,71.80
2019-05-05T02:33:20.198Z,72.50
2019-05-05T02:35:49.300Z,73.40
2019-05-05T02:38:18.328Z,73.10
2019-05-05T02:40:48.325Z,72.90
2019-05-05T02:43:19.091Z,72.00
2019-05-05T02:45:55.243Z,72.80
2019-05-05T02:48:24.990Z,72.80
2019-05-05T02:51:01.733Z,72.90
2019-05-05T02:53:30.966Z,73.70
2019-05-05T02:56:04.808Z,73.30
2019-05-05T02:58:37.286Z,73.20
2019-05-05T03:01:21.361Z,73.30
2019-05-05T03:03:51.360Z,72.40
2019-05-05T03:06:20.323Z,71.00
2019-05-05T03:08:50.303Z,71.20
2019-05-05T03:11:19.917Z,71.40
2019-05-05T03:13:53.522Z,72.20
2019-05-05T03:16:25.344Z,72.50
2019-05-05T03:18:55.407Z,72.70
2019-05-05T03:21:24.902Z,73.20
2019-05-05T03:23:54.686Z,73.00
2019-05-05T03:26:24.466Z,72.90
2019-05-05T03:28:55.470Z,71.80
2019-05-05T03:31:26.451Z,71.80
2019-05-05T03:33:56.588Z,72.20
2019-05-05T03:36:27.907Z,72.90
2019-05-05T03:38:57.092Z,72.50
2019-05-05T03:41:31.962Z,72.20
2019-05-05T03:44:04.735Z,72.80
2019-05-05T03:46:35.623Z,73.30
2019-05-05T03:49:05.333Z,73.10
2019-05-05T03:51:34.642Z,73.70
2019-05-05T03:54:04.479Z,74.40
2019-05-05T03:56:34.770Z,75.00
2019-05-05T03:59:05.035Z,75.00
2019-05-05T04:01:43.958Z,75.10
2019-05-05T04:04:24.404Z,75.60
2019-05-05T04:06:56.566Z,75.40
2019-05-05T04:09:26.129Z,75.30
2019-05-05T04:11:55.229Z,74.70
2019-05-05T04:14:24.974Z,74.90
2019-05-05T04:17:03.493Z,75.20
2019-05-05T04:19:37.129Z,75.40
2019-05-05T04:22:06.172Z,74.70
2019-05-05T04:24:35.470Z,74.60
2019-05-05T04:27:04.457Z,75.20
2019-05-05T04:29:34.467Z,74.30
2019-05-05T04:32:04.653Z,74.80
2019-05-05T04:34:34.697Z,74.90
2019-05-05T04:37:04.390Z,74.40
2019-05-05T04:39:34.281Z,73.80
2019-05-05T04:42:04.745Z,73.90
2019-05-05T04:44:34.606Z,74.00
2019-05-05T04:47:11.423Z,74.20
2019-05-05T04:49:42.022Z,74.10
2019-05-05T04:52:24.772Z,74.20
2019-05-05T04:54:55.765Z,74.90
2019-05-05T04:57:25.126Z,74.80
2019-05-05T04:59:54.265Z,73.60
2019-05-05T05:02:30.618Z,73.10
2019-05-05T05:05:10.086Z,72.80
2019-05-05T05:07:39.077Z,73.20
2019-05-05T05:10:08.180Z,73.60
2019-05-05T05:12:37.142Z,73.20
2019-05-05T05:15:06.372Z,73.30
2019-05-05T05:17:44.266Z,73.90
2019-05-05T05:20:14.277Z,73.70
2019-05-05T05:22:44.018Z,73.90
2019-05-05T05:25:13.662Z,75.30
2019-05-05T05:27:44.354Z,75.60
2019-05-05T05:30:13.969Z,74.90
2019-05-05T05:32:44.570Z,74.80
2019-05-05T05:35:14.247Z,73.70
2019-05-05T05:37:44.813Z,73.80
2019-05-05T05:40:16.079Z,74.10
2019-05-05T05:42:45.033Z,74.80
2019-05-05T05:45:24.842Z,74.30
2019-05-05T05:48:01.433Z,75.20
2019-05-05T05:50:37.755Z,74.50
2019-05-05T05:53:06.719Z,74.80
2019-05-05T05:55:35.739Z,74.20
2019-05-05T05:58:05.000Z,73.50
2019-05-05T06:00:34.458Z,73.80
2019-05-05T06:03:04.016Z,74.20
2019-05-05T06:05:34.795Z,73.40
2019-05-05T06:08:04.726Z,73.00
2019-05-05T06:10:34.074Z,72.60
2019-05-05T06:13:04.137Z,72.70
2019-05-05T06:15:34.377Z,72.30
2019-05-05T06:18:04.615Z,71.30
2019-05-05T06:20:34.477Z,72.00
2019-05-05T06:23:04.209Z,71.90
2019-05-05T06:25:34.275Z,71.40
2019-05-05T06:28:04.202Z,72.60
2019-05-05T06:30:33.753Z,72.90
2019-05-05T06:33:04.913Z,72.90
2019-05-05T06:35:33.981Z,72.20
2019-05-05T06:38:04.682Z,72.50
2019-05-05T06:40:35.702Z,72.30
2019-05-05T06:43:25.496Z,70.30
2019-05-05T06:46:08.493Z,70.70
2019-05-05T06:48:37.472Z,71.00
2019-05-05T06:51:07.013Z,70.80
2019-05-05T06:53:36.364Z,70.80
2019-05-05T06:56:05.405Z,70.80
2019-05-05T06:58:34.844Z,71.00
2019-05-05T07:01:03.880Z,68.00
2019-05-05T07:03:33.697Z,67.60
2019-05-05T07:06:04.378Z,68.70
2019-05-05T07:08:34.776Z,66.40
2019-05-05T07:11:04.313Z,67.50
2019-05-05T07:13:34.070Z,66.20
2019-05-05T07:16:04.787Z,66.30
2019-05-05T07:18:34.331Z,66.40
2019-05-05T07:21:03.803Z,66.00
2019-05-05T07:23:34.134Z,66.50
2019-05-05T07:26:04.280Z,67.80
2019-05-05T07:28:34.207Z,67.90
2019-05-05T07:31:04.491Z,64.90
2019-05-05T07:33:34.770Z,66.20
2019-05-05T07:36:21.583Z,64.80
2019-05-05T07:38:50.616Z,63.60
2019-05-05T07:41:19.611Z,65.30
2019-05-05T07:43:48.612Z,64.00
2019-05-05T07:46:17.595Z,64.40
2019-05-05T07:48:46.700Z,63.90
2019-05-05T07:51:15.751Z,64.00
2019-05-05T07:53:44.725Z,62.70
2019-05-05T07:56:14.453Z,61.00
2019-05-05T07:58:43.970Z,60.40
2019-05-05T08:01:14.113Z,60.20
2019-05-05T08:03:44.645Z,61.00
2019-05-05T08:06:14.572Z,59.50
2019-05-05T08:08:44.400Z,60.30
2019-05-05T08:11:14.692Z,59.50
2019-05-05T08:13:44.439Z,60.70
2019-05-05T08:16:33.570Z,61.00
2019-05-05T08:19:13.765Z,61.90
2019-05-05T08:21:43.721Z,59.90
2019-05-05T08:24:14.498Z,58.40
2019-05-05T08:26:48.185Z,59.10
2019-05-05T08:29:30.008Z,57.50
2019-05-05T08:32:00.562Z,57.80
2019-05-05T08:34:29.538Z,57.20
2019-05-05T08:36:59.906Z,58.30
2019-05-05T08:39:29.233Z,57.10
2019-05-05T08:41:58.201Z,57.70
2019-05-05T08:44:27.181Z,57.60
2019-05-05T08:46:56.206Z,56.80
2019-05-05T08:49:25.197Z,55.30
2019-05-05T08:51:54.708Z,55.40
2019-05-05T08:54:24.367Z,54.00
2019-05-05T08:56:54.977Z,52.40
2019-05-05T08:59:24.307Z,52.40
2019-05-05T09:01:54.150Z,52.50
2019-05-05T09:04:24.640Z,53.70
2019-05-05T09:06:54.418Z,54.20
2019-05-05T09:09:24.150Z,54.30
2019-05-05T09:11:54.197Z,54.00
2019-05-05T09:14:23.989Z,53.30
2019-05-05T09:16:53.749Z,54.20
2019-05-05T09:19:24.100Z,54.70
2019-05-05T09:21:54.159Z,57.30
2019-05-05T09:24:40.324Z,59.40
2019-05-05T09:27:14.275Z,58.90
2019-05-05T09:29:44.281Z,61.70
2019-05-05T09:32:13.922Z,56.90
2019-05-05T09:34:43.671Z,53.80
2019-05-05T09:37:14.393Z,48.70
2019-05-05T09:39:43.816Z,51.60
2019-05-05T09:42:14.496Z,46.00
2019-05-05T09:44:44.106Z,43.80
2019-05-05T09:47:13.681Z,45.60
2019-05-05T09:49:44.563Z,45.30
2019-05-05T09:52:14.186Z,47.10
2019-05-05T09:54:43.889Z,45.30
2019-05-05T09:57:14.523Z,46.50
2019-05-05T09:59:44.298Z,45.00
2019-05-05T10:02:13.477Z,47.50
2019-05-05T10:04:44.117Z,48.30
2019-05-05T10:07:13.839Z,46.10
2019-05-05T10:09:43.777Z,46.10
2019-05-05T10:12:12.974Z,45.00
2019-05-05T10:14:42.004Z,44.30
2019-05-05T10:17:10.973Z,44.80
2019-05-05T10:19:40.280Z,43.60
2019-05-05T10:22:09.368Z,39.90
2019-05-05T10:24:44.347Z,42.50
2019-05-05T10:27:13.436Z,41.30
2019-05-05T10:29:44.207Z,42.80
2019-05-05T10:32:13.864Z,41.80
2019-05-05T10:34:44.809Z,38.20
2019-05-05T10:37:14.319Z,40.60
2019-05-05T10:39:45.283Z,34.70
2019-05-05T10:42:14.609Z,38.40
2019-05-05T10:44:44.631Z,37.60
2019-05-05T10:47:13.982Z,37.70
2019-05-05T10:49:44.187Z,37.30
2019-05-05T10:52:14.184Z,38.20
2019-05-05T10:54:44.888Z,39.10
2019-05-05T10:57:15.497Z,37.80
2019-05-05T10:59:44.719Z,39.50
2019-05-05T11:02:14.131Z,40.90
2019-05-05T11:04:44.158Z,42.00
2019-05-05T11:07:15.220Z,45.40
2019-05-05T11:09:44.516Z,45.20
2019-05-05T11:12:14.275Z,46.00
2019-05-05T11:14:44.251Z,45.90
2019-05-05T11:17:14.391Z,46.50
2019-05-05T11:19:44.228Z,47.20
2019-05-05T11:22:14.727Z,47.40
2019-05-05T11:24:55.276Z,47.20
2019-05-05T11:27:14.590Z,48.60
2019-05-05T11:30:03.971Z,48.30
2019-05-05T11:32:50.301Z,47.30
2019-05-05T11:35:20.973Z,48.90
2019-05-05T11:37:50.270Z,48.00
2019-05-05T11:40:20.887Z,47.90
2019-05-05T11:42:49.938Z,45.20
2019-05-05T11:45:19.056Z,43.90
2019-05-05T11:47:48.114Z,45.80
2019-05-05T11:50:17.080Z,45.50
2019-05-05T11:52:46.072Z,46.20
2019-05-05T11:55:15.156Z,47.30
2019-05-05T11:57:44.172Z,43.80
2019-05-05T12:00:14.160Z,43.10
2019-05-05T12:02:43.950Z,40.90
2019-05-05T12:05:14.100Z,40.90
2019-05-05T12:07:43.770Z,41.70
2019-05-05T12:10:23.822Z,38.80
2019-05-05T12:12:53.733Z,38.50
2019-05-05T12:15:23.867Z,38.90
2019-05-05T12:17:54.551Z,35.40
2019-05-05T12:20:37.520Z,34.80
2019-05-05T12:23:07.230Z,37.50
2019-05-05T12:25:50.354Z,37.00
2019-05-05T12:28:24.305Z,35.00
2019-05-05T12:30:57.011Z,35.00
2019-05-05T12:33:26.084Z,37.00
2019-05-05T12:35:55.183Z,36.80
2019-05-05T12:38:24.233Z,39.00
2019-05-05T12:40:53.617Z,37.90
2019-05-05T12:43:24.655Z,38.00
2019-05-05T12:46:13.723Z,38.40
2019-05-05T12:48:44.091Z,41.50
2019-05-05T12:51:14.697Z,38.30
2019-05-05T12:53:44.105Z,39.00
2019-05-05T12:56:14.578Z,39.30
2019-05-05T12:58:44.105Z,40.50
2019-05-05T13:01:20.470Z,42.50
2019-05-05T13:03:49.582Z,44.10
2019-05-05T13:06:18.572Z,46.70
2019-05-05T13:08:47.912Z,49.60
2019-05-05T13:11:17.489Z,50.90
2019-05-05T13:13:46.539Z,54.50
2019-05-05T13:16:15.582Z,54.10
2019-05-05T13:18:44.567Z,55.10
2019-05-05T13:21:15.329Z,54.60
2019-05-05T13:23:45.962Z,56.10
2019-05-05T13:26:19.568Z,53.70
2019-05-05T13:28:48.882Z,57.90
2019-05-05T13:31:17.870Z,53.10
2019-05-05T13:33:46.842Z,57.10
2019-05-05T13:36:15.876Z,57.90
2019-05-05T13:38:44.870Z,55.20
2019-05-05T13:41:13.839Z,52.40
2019-05-05T13:43:42.848Z,52.80
2019-05-05T13:46:19.089Z,52.90
2019-05-05T13:48:48.107Z,50.10
2019-05-05T13:51:18.783Z,51.30
2019-05-05T13:53:47.743Z,45.60
2019-05-05T13:56:16.916Z,45.20
2019-05-05T13:58:45.899Z,43.40
2019-05-05T14:01:14.930Z,45.50
2019-05-05T14:03:44.805Z,44.10
2019-05-05T14:06:14.125Z,43.00
2019-05-05T14:08:44.759Z,43.60
2019-05-05T14:11:14.311Z,44.70
2019-05-05T14:13:45.535Z,41.70
2019-05-05T14:16:14.446Z,39.80
2019-05-05T14:18:43.733Z,41.00
2019-05-05T14:21:14.078Z,42.70
2019-05-05T14:24:03.777Z,44.10
2019-05-05T14:26:35.339Z,44.00
2019-05-05T14:29:04.424Z,43.60
2019-05-05T14:31:35.208Z,46.60
2019-05-05T14:34:05.908Z,48.30
2019-05-05T14:36:48.477Z,50.50
2019-05-05T14:39:18.909Z,50.10
2019-05-05T14:41:48.271Z,53.90
2019-05-05T14:44:17.266Z,54.60
2019-05-05T14:46:46.360Z,54.40
2019-05-05T14:49:15.356Z,55.60
2019-05-05T14:51:44.778Z,53.60
2019-05-05T14:54:14.801Z,51.20
2019-05-05T14:56:44.263Z,49.10
2019-05-05T14:59:14.273Z,50.30
2019-05-05T15:01:44.754Z,45.60
2019-05-05T15:04:15.517Z,43.80
2019-05-05T15:06:46.156Z,46.50
2019-05-05T15:09:16.750Z,45.30
2019-05-05T15:11:50.328Z,44.40
2019-05-05T15:14:19.315Z,46.10
2019-05-05T15:16:48.354Z,46.00
2019-05-05T15:19:17.356Z,47.40
2019-05-05T15:21:48.748Z,48.30
2019-05-05T15:24:17.043Z,46.60
2019-05-05T15:26:51.789Z,46.60
2019-05-05T15:29:16.790Z,46.80
2019-05-05T15:31:45.767Z,46.60
2019-05-05T15:34:14.754Z,46.60
2019-05-05T15:36:44.098Z,45.20
2019-05-05T15:39:13.856Z,49.80
2019-05-05T15:41:44.613Z,48.80
2019-05-05T15:44:13.755Z,52.40
2019-05-05T15:46:44.200Z,55.30
2019-05-05T15:49:13.648Z,55.90
2019-05-05T15:51:44.340Z,56.50
2019-05-05T15:54:14.184Z,57.20
2019-05-05T15:56:43.188Z,54.00
2019-05-05T15:59:14.218Z,53.50
2019-05-05T16:01:43.465Z,56.90
2019-05-05T16:04:14.071Z,56.10
2019-05-05T16:06:44.524Z,55.60
2019-05-05T16:09:14.139Z,54.30
2019-05-05T16:11:44.050Z,57.80
2019-05-05T16:14:14.417Z,58.10
2019-05-05T16:16:50.831Z,58.00
2019-05-05T16:19:28.081Z,53.60
2019-05-05T16:22:01.381Z,52.30
2019-05-05T16:24:36.587Z,50.50
2019-05-05T16:27:18.401Z,49.00
2019-05-05T16:29:36.172Z,48.80
2019-05-05T16:32:18.562Z,49.80
2019-05-05T16:34:35.866Z,46.50
2019-05-05T16:37:04.840Z,46.50
2019-05-05T16:39:33.801Z,46.30
2019-05-05T16:42:02.765Z,45.20
2019-05-05T16:44:31.738Z,46.00
2019-05-05T16:47:00.835Z,46.60
2019-05-05T16:49:30.182Z,45.90
2019-05-05T16:52:01.110Z,46.00
2019-05-05T16:54:33.360Z,47.00
2019-05-05T16:57:03.970Z,45.70
2019-05-05T16:59:34.126Z,45.70
2019-05-05T17:02:04.769Z,47.80
2019-05-05T17:04:35.617Z,48.20
2019-05-05T17:07:05.015Z,49.20
2019-05-05T17:09:34.448Z,47.60
2019-05-05T17:12:09.190Z,47.90
2019-05-05T17:14:46.740Z,46.60
2019-05-05T17:17:35.403Z,45.60
2019-05-05T17:20:13.989Z,45.80
2019-05-05T17:22:59.604Z,46.50
2019-05-05T17:25:28.701Z,48.00
2019-05-05T17:27:57.774Z,45.90
2019-05-05T17:30:27.305Z,46.30
2019-05-05T17:32:56.545Z,44.60
2019-05-05T17:35:25.544Z,46.50
2019-05-05T17:37:56.271Z,44.80
2019-05-05T17:40:35.836Z,45.20
2019-05-05T17:43:27.373Z,43.50
2019-05-05T17:45:55.245Z,44.40
2019-05-05T17:48:28.577Z,44.10
2019-05-05T17:51:15.582Z,44.70
2019-05-05T17:53:55.089Z,45.10
2019-05-05T17:56:24.078Z,45.70
2019-05-05T17:58:53.798Z,44.60
2019-05-05T18:01:23.883Z,46.50
2019-05-05T18:03:54.487Z,46.10
2019-05-05T18:06:25.556Z,48.00
2019-05-05T18:09:02.212Z,47.80
2019-05-05T18:11:38.884Z,48.40
2019-05-05T18:14:09.505Z,48.40
2019-05-05T18:16:38.551Z,48.90
2019-05-05T18:19:07.512Z,48.30
2019-05-05T18:21:36.482Z,49.00
2019-05-05T18:24:05.521Z,49.50
2019-05-05T18:26:34.588Z,49.90
2019-05-05T18:29:03.914Z,50.30
2019-05-05T18:31:33.798Z,50.60
2019-05-05T18:34:04.036Z,51.60
2019-05-05T18:36:33.173Z,51.60
2019-05-05T18:39:02.131Z,50.60
2019-05-05T18:41:34.458Z,50.70
2019-05-05T18:44:08.614Z,51.10
2019-05-05T18:46:37.677Z,51.30
2019-05-05T18:49:06.711Z,51.90
2019-05-05T18:51:35.741Z,53.10
2019-05-05T18:54:04.916Z,52.70
2019-05-05T18:56:34.777Z,54.60
2019-05-05T18:59:06.518Z,54.20
2019-05-05T19:01:36.664Z,55.40
2019-05-05T19:04:07.319Z,55.80
2019-05-05T19:06:47.087Z,54.70
2019-05-05T19:09:17.875Z,54.60
2019-05-05T19:11:46.902Z,55.20
2019-05-05T19:14:16.939Z,55.20
2019-05-05T19:16:45.992Z,55.50
2019-05-05T19:19:15.036Z,56.60
2019-05-05T19:21:45.740Z,57.00
2019-05-05T19:24:14.699Z,57.40
2019-05-05T19:26:43.670Z,57.80
2019-05-05T19:29:13.527Z,57.20
2019-05-05T19:31:43.837Z,57.80
2019-05-05T19:34:14.545Z,57.10
2019-05-05T19:36:44.947Z,57.00
2019-05-05T19:39:14.029Z,57.40
2019-05-05T19:41:44.312Z,57.00
2019-05-05T19:44:14.686Z,56.90
2019-05-05T19:46:57.755Z,57.00
2019-05-05T19:49:26.791Z,59.30
2019-05-05T19:51:55.770Z,60.70
2019-05-05T19:54:24.819Z,61.10
2019-05-05T19:56:54.220Z,61.90
2019-05-05T19:59:23.666Z,62.30
2019-05-05T20:01:53.998Z,62.10
2019-05-05T20:04:24.108Z,62.90
2019-05-05T20:06:54.787Z,62.90
2019-05-05T20:09:24.710Z,63.40
2019-05-05T20:11:54.627Z,64.60
2019-05-05T20:14:24.756Z,65.00
2019-05-05T20:17:01.267Z,65.20
2019-05-05T20:19:34.188Z,65.70
2019-05-05T20:22:03.349Z,65.60
2019-05-05T20:24:33.692Z,66.30
2019-05-05T20:27:04.603Z,67.30
2019-05-05T20:29:37.168Z,67.60
2019-05-05T20:32:04.758Z,67.30
2019-05-05T20:34:38.526Z,67.10
2019-05-05T20:37:08.348Z,66.00
2019-05-05T20:39:39.393Z,66.70
2019-05-05T20:42:08.581Z,67.60
2019-05-05T20:44:37.886Z,67.40
2019-05-05T20:47:06.962Z,67.80
2019-05-05T20:49:36.074Z,67.80
2019-05-05T20:52:05.089Z,67.80
2019-05-05T20:54:34.140Z,68.90
2019-05-05T20:57:04.347Z,69.10
2019-05-05T20:59:34.363Z,69.40
2019-05-05T21:02:04.558Z,68.30
2019-05-05T21:04:34.464Z,66.60
2019-05-05T21:07:04.583Z,66.40
2019-05-05T21:09:34.677Z,66.80
2019-05-05T21:12:04.715Z,67.50
2019-05-05T21:14:37.800Z,67.60
2019-05-05T21:17:04.716Z,68.20
2019-05-05T21:19:34.539Z,69.40
2019-05-05T21:22:21.774Z,69.20
2019-05-05T21:24:51.361Z,69.40
2019-05-05T21:27:20.387Z,69.60
2019-05-05T21:29:49.353Z,69.70
2019-05-05T21:32:18.484Z,70.30
2019-05-05T21:34:47.505Z,70.00
2019-05-05T21:37:16.499Z,70.40
2019-05-05T21:39:45.568Z,69.80
2019-05-05T21:42:14.589Z,69.50
2019-05-05T21:44:44.318Z,68.90
2019-05-05T21:47:14.177Z,68.00
2019-05-05T21:49:43.328Z,68.80
2019-05-05T21:52:30.106Z,68.70
2019-05-05T21:55:06.402Z,67.40
2019-05-05T21:57:37.013Z,67.20
2019-05-05T22:00:09.914Z,68.60
2019-05-05T22:02:38.994Z,70.10
2019-05-05T22:05:08.493Z,70.00
2019-05-05T22:07:37.451Z,70.70
2019-05-05T22:10:06.657Z,71.30
2019-05-05T22:12:36.349Z,72.30
2019-05-05T22:15:07.011Z,72.30
2019-05-05T22:17:36.374Z,72.10
2019-05-05T22:20:07.544Z,72.90
2019-05-05T22:22:38.158Z,73.20
2019-05-05T22:25:07.552Z,72.30
2019-05-05T22:27:36.556Z,72.30
2019-05-05T22:30:10.372Z,72.70
2019-05-05T22:32:38.371Z,72.90
2019-05-05T22:35:08.184Z,73.00
2019-05-05T22:37:37.155Z,73.20
2019-05-05T22:40:06.688Z,73.80
2019-05-05T22:42:35.631Z,73.80
2019-05-05T22:45:06.747Z,73.90
2019-05-05T22:47:35.783Z,74.00
2019-05-05T22:50:05.608Z,73.00
2019-05-05T22:52:34.860Z,73.50
2019-05-05T22:55:05.354Z,73.30
2019-05-05T22:57:34.672Z,73.30
2019-05-05T23:00:06.039Z,73.70
2019-05-05T23:02:36.797Z,75.00
2019-05-05T23:05:11.606Z,73.90
2019-05-05T23:07:40.893Z,74.30
2019-05-05T23:10:10.008Z,73.60
2019-05-05T23:12:39.035Z,73.70
2019-05-05T23:15:09.352Z,74.10
2019-05-05T23:17:49.234Z,74.30
2019-05-05T23:20:44.443Z,74.50
2019-05-05T23:23:17.853Z,74.30
2019-05-05T23:25:51.241Z,74.60
2019-05-05T23:28:20.204Z,74.50
2019-05-05T23:30:49.149Z,74.20
2019-05-05T23:33:18.461Z,73.20
2019-05-05T23:35:47.409Z,73.50
2019-05-05T23:38:18.043Z,73.30
2019-05-05T23:40:47.006Z,73.80
2019-05-05T23:43:16.032Z,74.60
2019-05-05T23:45:45.004Z,75.00
2019-05-05T23:48:14.393Z,75.00
2019-05-05T23:50:44.587Z,74.90
2019-05-05T23:53:13.872Z,75.00
2019-05-05T23:55:44.065Z,75.30
2019-05-05T23:58:14.384Z,75.60
